地図

経路データ

SID SEASON NUMBER BASIN SUBBASIN NAME ISO_TIME NATURE LAT LON WMO_WIND WMO_PRES WMO_AGENCY TRACK_TYPE DIST2LAND LANDFALL IFLAG USA_AGENCY USA_ATCF_ID USA_LAT USA_LON USA_RECORD USA_STATUS USA_WIND USA_PRES USA_SSHS USA_R34_NE USA_R34_SE USA_R34_SW USA_R34_NW USA_R50_NE USA_R50_SE USA_R50_SW USA_R50_NW USA_R64_NE USA_R64_SE USA_R64_SW USA_R64_NW USA_POCI USA_ROCI USA_RMW USA_EYE TOKYO_LAT TOKYO_LON TOKYO_GRADE TOKYO_WIND TOKYO_PRES TOKYO_R50_DIR TOKYO_R50_LONG TOKYO_R50_SHORT TOKYO_R30_DIR TOKYO_R30_LONG TOKYO_R30_SHORT TOKYO_LAND CMA_LAT CMA_LON CMA_CAT CMA_WIND CMA_PRES HKO_LAT HKO_LON HKO_CAT HKO_WIND HKO_PRES NEWDELHI_LAT NEWDELHI_LON NEWDELHI_GRADE NEWDELHI_WIND NEWDELHI_PRES NEWDELHI_CI NEWDELHI_DP NEWDELHI_POCI REUNION_LAT REUNION_LON REUNION_TYPE REUNION_WIND REUNION_PRES REUNION_TNUM REUNION_CI REUNION_RMW REUNION_R34_NE REUNION_R34_SE REUNION_R34_SW REUNION_R34_NW REUNION_R50_NE REUNION_R50_SE REUNION_R50_SW REUNION_R50_NW REUNION_R64_NE REUNION_R64_SE REUNION_R64_SW REUNION_R64_NW BOM_LAT BOM_LON BOM_TYPE BOM_WIND BOM_PRES BOM_TNUM BOM_CI BOM_RMW BOM_R34_NE BOM_R34_SE BOM_R34_SW BOM_R34_NW BOM_R50_NE BOM_R50_SE BOM_R50_SW BOM_R50_NW BOM_R64_NE BOM_R64_SE BOM_R64_SW BOM_R64_NW BOM_ROCI BOM_POCI BOM_EYE BOM_POS_METHOD BOM_PRES_METHOD NADI_LAT NADI_LON NADI_CAT NADI_WIND NADI_PRES WELLINGTON_LAT WELLINGTON_LON WELLINGTON_WIND WELLINGTON_PRES DS824_LAT DS824_LON DS824_STAGE DS824_WIND DS824_PRES TD9636_LAT TD9636_LON TD9636_STAGE TD9636_WIND TD9636_PRES TD9635_LAT TD9635_LON TD9635_WIND TD9635_PRES TD9635_ROCI NEUMANN_LAT NEUMANN_LON NEUMANN_CLASS NEUMANN_WIND NEUMANN_PRES MLC_LAT MLC_LON MLC_CLASS MLC_WIND MLC_PRES USA_GUST BOM_GUST BOM_GUST_PER REUNION_GUST REUNION_GUST_PER USA_SEAHGT USA_SEARAD_NE USA_SEARAD_SE USA_SEARAD_SW USA_SEARAD_NW STORM_SPEED STORM_DIR
1962022S12123 1962 8 SI WA NOT_NAMED 1962-01-21 23:00:00 NR -12.1000 123.200 main 193 193 __________O___ -1 -12.1000 123.200 1 5 261
1962022S12123 1962 8 SI WA NOT_NAMED 1962-01-22 00:00:00 TS -12.1138 123.113 main 195 195 _________OP___ -1 -12.1000 123.100 TC -12.1206 123.119 1 5 258
1962022S12123 1962 8 SI WA NOT_NAMED 1962-01-22 03:00:00 TS -12.1676 122.866 main 211 211 _________PP___ -1 -12.1425 122.850 TC -12.1843 122.877 1 5 256
1962022S12123 1962 8 SI WA NOT_NAMED 1962-01-22 06:00:00 TS -12.2312 122.617 main 224 224 _________OP___ -1 -12.2000 122.600 TC -12.2546 122.629 1 5 254
1962022S12123 1962 8 SI WA NOT_NAMED 1962-01-22 09:00:00 TS -12.3107 122.363 main 244 244 _________PP___ -1 -12.2850 122.350 TC -12.3365 122.375 1 5 250
1962022S12123 1962 8 SI WA NOT_NAMED 1962-01-22 11:00:00 TS -12.3792 122.192 main 265 265 _________PO___ -1 -12.3583 122.183 TC -12.4000 122.200 1 5 247
1962022S12123 1962 8 SI WA NOT_NAMED 1962-01-22 12:00:00 TS -12.4175 122.105 main 271 271 _________OP___ -1 -12.4000 122.100 TC -12.4349 122.110 1 6 243
1962022S12123 1962 8 SI WA NOT_NAMED 1962-01-22 15:00:00 TS -12.5504 121.847 main 294 288 _________PP___ -1 -12.5500 121.858 TC -12.5508 121.836 1 6 242
1962022S12123 1962 8 SI WA NOT_NAMED 1962-01-22 18:00:00 TS -12.6892 121.579 main 294 286 _________OP___ -1 -12.7000 121.600 TC -12.6784 121.557 1 6 245
1962022S12123 1962 8 SI WA NOT_NAMED 1962-01-22 21:00:00 TS -12.8057 121.290 main 293 290 _________PP___ -1 -12.8000 121.300 TC -12.8114 121.280 1 6 248
1962022S12123 1962 8 SI WA NOT_NAMED 1962-01-22 23:00:00 TS -12.8818 121.098 main 298 296 _________PO___ -1 -12.8636 121.097 TC -12.9000 121.100 1 6 247
1962022S12123 1962 8 SI WA NOT_NAMED 1962-01-23 00:00:00 TS -12.9202 121.006 main 296 294 _________OP___ -1 -12.9000 121.000 TC -12.9404 121.012 1 6 243
1962022S12123 1962 8 SI WA NOT_NAMED 1962-01-23 03:00:00 TS -13.0555 120.748 main 314 313 _________PP___ -1 -13.0500 120.743 TC -13.0611 120.753 1 6 241
1962022S12123 1962 8 SI WA NOT_NAMED 1962-01-23 06:00:00 TS -13.1918 120.501 main 324 324 _________OP___ -1 -13.2000 120.500 TC -13.1836 120.502 1 5 243
1962022S12123 1962 8 SI WA NOT_NAMED 1962-01-23 09:00:00 TS -13.3055 120.250 main 336 336 _________PP___ -1 -13.3000 120.242 TC -13.3109 120.258 1 5 245
1962022S12123 1962 8 SI WA NOT_NAMED 1962-01-23 11:00:00 TS -13.3818 120.089 main 349 349 _________PO___ -1 -13.3636 120.078 TC -13.4000 120.100 1 5 243
1962022S12123 1962 8 SI WA NOT_NAMED 1962-01-23 12:00:00 TS -13.4233 120.011 main 351 351 _________OP___ -1 -13.4000 120.000 TC -13.4466 120.022 1 5 237
1962022S12123 1962 8 SI WA NOT_NAMED 1962-01-23 15:00:00 TS -13.5672 119.796 main 377 377 _________PP___ -1 -13.5424 119.800 TC -13.5920 119.792 1 5 234
1962022S12123 1962 8 SI WA NOT_NAMED 1962-01-23 18:00:00 TS -13.7216 119.584 main 393 393 _________OP___ -1 -13.7000 119.600 TC -13.7433 119.568 1 5 235
1962022S12123 1962 8 SI WA NOT_NAMED 1962-01-23 21:00:00 TS -13.8737 119.349 main 423 423 _________PP___ -1 -13.8500 119.350 TC -13.8973 119.347 1 6 236
1962022S12123 1962 8 SI WA NOT_NAMED 1962-01-23 23:00:00 TS -13.9750 119.190 main 437 437 _________PO___ -1 -13.9500 119.180 TC -14.0000 119.200 1 5 237
1962022S12123 1962 8 SI WA NOT_NAMED 1962-01-24 00:00:00 TS -14.0244 119.114 main 441 441 _________OP___ -1 -14.0000 119.100 TC -14.0487 119.127 1 5 235
1962022S12123 1962 8 SI WA NOT_NAMED 1962-01-24 03:00:00 TS -14.1684 118.905 main 469 469 _________PP___ -1 -14.1424 118.900 TC -14.1944 118.911 1 5 234
1962022S12123 1962 8 SI WA NOT_NAMED 1962-01-24 06:00:00 TS -14.3209 118.695 main 487 487 _________OP___ -1 -14.3000 118.700 TC -14.3419 118.691 1 5 233
1962022S12123 1962 8 SI WA NOT_NAMED 1962-01-24 09:00:00 TS -14.4971 118.459 main 500 500 _________PP___ -1 -14.5000 118.458 TC -14.4942 118.461 1 6 233
1962022S12123 1962 8 SI WA NOT_NAMED 1962-01-24 11:00:00 TS -14.6182 118.293 main 511 511 _________PO___ -1 -14.6364 118.286 TC -14.6000 118.300 1 6 234
1962022S12123 1962 8 SI WA NOT_NAMED 1962-01-24 12:00:00 TS -14.6793 118.206 main 514 514 _________OP___ -1 -14.7000 118.200 TC -14.6587 118.211 1 6 235
1962022S12123 1962 8 SI WA NOT_NAMED 1962-01-24 15:00:00 TS -14.8496 117.945 main 536 530 _________PP___ -1 -14.8574 117.957 TC -14.8418 117.933 1 6 237
1962022S12123 1962 8 SI WA NOT_NAMED 1962-01-24 18:00:00 TS -15.0129 117.674 main 544 544 _________OP___ -1 -15.0000 117.700 TC -15.0257 117.648 1 6 239
1962022S12123 1962 8 SI WA NOT_NAMED 1962-01-24 21:00:00 TS -15.1777 117.382 main 563 563 _________PP___ -1 -15.1575 117.393 TC -15.1979 117.372 1 6 240
1962022S12123 1962 8 SI WA NOT_NAMED 1962-01-24 23:00:00 TS -15.2779 117.196 main 573 573 _________PO___ -1 -15.2557 117.191 TC -15.3000 117.200 1 6 241
1962022S12123 1962 8 SI WA NOT_NAMED 1962-01-25 00:00:00 TS -15.3210 117.113 main 577 566 _________OP___ -1 -15.3000 117.100 TC -15.3421 117.127 1 5 242
1962022S12123 1962 8 SI WA NOT_NAMED 1962-01-25 03:00:00 TS -15.4294 116.905 main 573 562 _________PP___ -1 -15.4074 116.885 TC -15.4513 116.926 1 4 242
1962022S12123 1962 8 SI WA NOT_NAMED 1962-01-25 06:00:00 TS -15.5224 116.718 main 567 557 _________OP___ -1 -15.5000 116.700 TC -15.5449 116.737 1 4 243
1962022S12123 1962 8 SI WA NOT_NAMED 1962-01-25 09:00:00 TS -15.6139 116.525 main 559 549 _________PP___ -1 -15.5925 116.507 TC -15.6353 116.542 1 4 244
1962022S12123 1962 8 SI WA NOT_NAMED 1962-01-25 11:00:00 TS -15.6805 116.386 main 549 549 _________PO___ -1 -15.6609 116.372 TC -15.7000 116.400 1 5 243
1962022S12123 1962 8 SI WA NOT_NAMED 1962-01-25 12:00:00 TS -15.7173 116.310 main 549 539 _________OP___ -1 -15.7000 116.300 TC -15.7346 116.320 1 5 243
1962022S12123 1962 8 SI WA NOT_NAMED 1962-01-25 15:00:00 TS -15.8425 116.064 main 540 523 _________PP___ -1 -15.8425 116.065 TC -15.8424 116.062 1 6 242
1962022S12123 1962 8 SI WA NOT_NAMED 1962-01-25 18:00:00 TS -15.9806 115.793 main 523 516 _________OP___ -1 -16.0000 115.800 TC -15.9611 115.786 1 6 242
1962022S12123 1962 8 SI WA NOT_NAMED 1962-01-25 21:00:00 TS -16.1234 115.502 main 519 511 _________PP___ -1 -16.1500 115.507 TC -16.0969 115.497 1 6 243
1962022S12123 1962 8 SI WA NOT_NAMED 1962-01-25 23:00:00 TS -16.2250 115.301 main 513 503 _________PO___ -1 -16.2500 115.303 TC -16.2000 115.300 2 7 242
1962022S12123 1962 8 SI WA NOT_NAMED 1962-01-26 00:00:00 TS -16.2777 115.200 main 506 502 _________OP___ -1 -16.3000 115.200 TC -16.2554 115.200 2 7 242
1962022S12123 1962 8 SI WA NOT_NAMED 1962-01-26 03:00:00 TS -16.4363 114.896 main 506 494 _________PP___ -1 -16.4350 114.900 TC -16.4376 114.892 2 7 240
1962022S12123 1962 8 SI WA NOT_NAMED 1962-01-26 06:00:00 TS -16.6195 114.591 main 499 489 _________OP___ -1 -16.6000 114.600 TC -16.6389 114.583 2 7 235
1962022S12123 1962 8 SI WA NOT_NAMED 1962-01-26 09:00:00 TS -16.8478 114.289 main 494 481 _________PP___ -1 -16.8425 114.293 TC -16.8531 114.286 2 7 231
1962022S12123 1962 8 SI WA NOT_NAMED 1962-01-26 11:00:00 TS -17.0086 114.097 main 486 483 _________PO___ -1 -17.0171 114.094 TC -17.0000 114.100 2 7 228
1962022S12123 1962 8 SI WA NOT_NAMED 1962-01-26 12:00:00 TS -17.0889 114.004 main 483 475 _________OP___ -1 -17.1000 114.000 TC -17.0778 114.009 2 7 229
1962022S12123 1962 8 SI WA NOT_NAMED 1962-01-26 15:00:00 TS -17.3096 113.738 main 480 468 _________PP___ -1 -17.3000 113.727 TC -17.3192 113.749 2 6 227
1962022S12123 1962 8 SI WA NOT_NAMED 1962-01-26 18:00:00 TS -17.5291 113.508 main 474 458 _________OP___ -1 -17.5000 113.500 TC -17.5582 113.515 2 6 221
1962022S12123 1962 8 SI WA NOT_NAMED 1962-01-26 21:00:00 TS -17.7742 113.321 main 458 449 _________PP___ -1 -17.7725 113.328 TC -17.7759 113.314 2 6 215
1962022S12123 1962 8 SI WA NOT_NAMED 1962-01-26 23:00:00 TS -17.9184 113.220 main 455 444 _________PO___ -1 -17.9369 113.239 TC -17.9000 113.200 2 5 214
1962022S12123 1962 8 SI WA NOT_NAMED 1962-01-27 00:00:00 TS -17.9732 113.176 main 444 435 _________OP___ -1 -18.0000 113.200 TC -17.9463 113.152 2 3 226
1962022S12123 1962 8 SI WA NOT_NAMED 1962-01-27 03:00:00 TS -18.0644 113.065 main 435 435 _________PP___ -1 -18.0725 113.092 TC -18.0563 113.038 2 2 232
1962022S12123 1962 8 SI WA NOT_NAMED 1962-01-27 06:00:00 TS -18.1211 112.975 main 437 429 _________OP___ -1 -18.1000 113.000 TC -18.1423 112.949 2 2 230
1962022S12123 1962 8 SI WA NOT_NAMED 1962-01-27 09:00:00 TS -18.2033 112.886 main 429 421 _________PP___ -1 -18.1775 112.907 TC -18.2292 112.865 2 3 223
1962022S12123 1962 8 SI WA NOT_NAMED 1962-01-27 11:00:00 TS -18.2763 112.820 main 421 421 _________PO___ -1 -18.2526 112.839 TC -18.3000 112.800 2 3 219
1962022S12123 1962 8 SI WA NOT_NAMED 1962-01-27 12:00:00 TS -18.3223 112.780 main 421 403 _________OP___ -1 -18.3000 112.800 TC -18.3446 112.760 2 4 218
1962022S12123 1962 8 SI WA NOT_NAMED 1962-01-27 15:00:00 TS -18.4891 112.648 main 407 390 _________PP___ -1 -18.4850 112.665 TC -18.4933 112.632 2 5 217
1962022S12123 1962 8 SI WA NOT_NAMED 1962-01-27 18:00:00 TS -18.6822 112.493 main 390 379 _________OP___ -1 -18.7000 112.500 TC -18.6645 112.487 2 5 219
1962022S12123 1962 8 SI WA NOT_NAMED 1962-01-27 21:00:00 TS -18.8754 112.315 main 379 374 _________PP___ -1 -18.8925 112.307 TC -18.8583 112.322 2 5 221
1962022S12123 1962 8 SI WA NOT_NAMED 1962-01-27 23:00:00 TS -19.0138 112.185 main 374 370 _________PO___ -1 -19.0276 112.169 TC -19.0000 112.200 2 6 222
1962022S12123 1962 8 SI WA NOT_NAMED 1962-01-28 00:00:00 TS -19.0866 112.119 main 370 357 _________OP___ -1 -19.1000 112.100 TC -19.0733 112.138 2 6 219
1962022S12123 1962 8 SI WA NOT_NAMED 1962-01-28 03:00:00 TS -19.3260 111.921 main 363 351 _________PP___ -1 -19.3425 111.907 TC -19.3096 111.935 2 6 218
1962022S12123 1962 8 SI WA NOT_NAMED 1962-01-28 06:00:00 TS -19.5817 111.705 main 351 350 _________OP___ -1 -19.6000 111.700 TC -19.5634 111.711 2 7 220
1962022S12123 1962 8 SI WA NOT_NAMED 1962-01-28 09:00:00 TS -19.8377 111.463 main 350 343 _________PP___ -1 -19.8500 111.457 TC -19.8254 111.469 2 7 222
1962022S12123 1962 8 SI WA NOT_NAMED 1962-01-28 11:00:00 TS -20.0083 111.293 main 351 351 _________PO___ -1 -20.0167 111.286 TC -20.0000 111.300 2 7 223
1962022S12123 1962 8 SI WA NOT_NAMED 1962-01-28 12:00:00 TS -20.0935 111.206 main 353 353 _________OP___ -1 -20.1000 111.200 TC -20.0871 111.211 2 7 224
1962022S12123 1962 8 SI WA NOT_NAMED 1962-01-28 15:00:00 TS -20.3498 110.945 main 367 362 _________PP___ -1 -20.3499 110.957 TC -20.3497 110.933 2 7 224
1962022S12123 1962 8 SI WA NOT_NAMED 1962-01-28 18:00:00 TS -20.6037 110.674 main 371 371 _________OP___ -1 -20.6000 110.700 TC -20.6074 110.648 2 7 226
1962022S12123 1962 8 SI WA NOT_NAMED 1962-01-28 21:00:00 TS -20.8578 110.382 main 381 381 _________PP___ -1 -20.8651 110.393 TC -20.8505 110.372 2 7 228
1962022S12123 1962 8 SI WA NOT_NAMED 1962-01-28 23:00:00 TS -21.0141 110.196 main 393 393 _________PO___ -1 -21.0281 110.191 TC -21.0000 110.200 2 7 229
1962022S12123 1962 8 SI WA NOT_NAMED 1962-01-29 00:00:00 TS -21.0811 110.109 main 398 398 _________OP___ -1 -21.1000 110.100 TC -21.0622 110.118 2 6 232
1962022S12123 1962 8 SI WA NOT_NAMED 1962-01-29 03:00:00 TS -21.2436 109.882 main 412 408 _________PP___ -1 -21.2574 109.877 TC -21.2298 109.887 2 5 231
1962022S12123 1962 8 SI WA NOT_NAMED 1962-01-29 06:00:00 TS -21.3941 109.691 main 423 423 _________OP___ -1 -21.4000 109.700 TC -21.3883 109.681 2 5 226
1962022S12123 1962 8 SI WA NOT_NAMED 1962-01-29 09:00:00 TS -21.5663 109.522 main 436 433 _________PP___ -1 -21.5700 109.542 TC -21.5626 109.502 2 5 218
1962022S12123 1962 8 SI WA NOT_NAMED 1962-01-29 11:00:00 TS -21.7068 109.424 main 443 441 _________PO___ -1 -21.7136 109.447 TC -21.7000 109.400 1 5 210
1962022S12123 1962 8 SI WA NOT_NAMED 1962-01-29 12:00:00 TS -21.7953 109.375 main 441 441 _________OP___ -1 -21.8000 109.400 TC -21.7906 109.351 1 7 204
1962022S12123 1962 8 SI WA NOT_NAMED 1962-01-29 15:00:00 TS -22.1215 109.230 main 455 453 _________PP___ -1 -22.1500 109.235 TC -22.0930 109.224 1 7 200
1962022S12123 1962 8 SI WA NOT_NAMED 1962-01-29 18:00:00 TS -22.4573 109.112 main 462 461 _________OP___ -1 -22.5000 109.100 TC -22.4146 109.124 1 6 196
1962022S12123 1962 8 SI WA NOT_NAMED 1962-01-29 21:00:00 TS -22.7255 109.040 main 471 471 _________PP___ -1 -22.7300 109.035 TC -22.7211 109.045 1 5 193
1962022S12123 1962 8 SI WA NOT_NAMED 1962-01-29 23:00:00 TS -22.8734 109.006 main 472 472 _________PO___ -1 -22.8469 109.011 TC -22.9000 109.000 1 4 190
1962022S12123 1962 8 SI WA NOT_NAMED 1962-01-30 00:00:00 TS -22.9350 108.989 main 472 467 _________OP___ -1 -22.9000 109.000 TC -22.9701 108.978 1 4 195
1962022S12123 1962 8 SI WA NOT_NAMED 1962-01-30 03:00:00 TS -23.1024 108.936 main 477 475 _________PP___ -1 -23.0575 108.950 TC -23.1473 108.923 1 3 195
1962022S12123 1962 8 SI WA NOT_NAMED 1962-01-30 06:00:00 TS -23.2448 108.889 main 475 470 _________OP___ -1 -23.2000 108.900 TC -23.2896 108.878 1 3 195
1962022S12123 1962 8 SI WA NOT_NAMED 1962-01-30 09:00:00 TS -23.3828 108.846 main 480 477 _________PP___ -1 -23.3500 108.857 TC -23.4157 108.834 1 3 197
1962022S12123 1962 8 SI WA NOT_NAMED 1962-01-30 11:00:00 TS -23.4750 108.811 main 477 477 _________PO___ -1 -23.4500 108.822 TC -23.5000 108.800 1 3 200
1962022S12123 1962 8 SI WA NOT_NAMED 1962-01-30 12:00:00 TS -23.5268 108.789 main 477 475 _________OP___ -1 -23.5000 108.800 TC -23.5537 108.777 1 3 206
1962022S12123 1962 8 SI WA NOT_NAMED 1962-01-30 15:00:00 TS -23.6832 108.701 main 483 481 _________PP___ -1 -23.6500 108.700 TC -23.7163 108.703 1 4 207
1962022S12123 1962 8 SI WA NOT_NAMED 1962-01-30 18:00:00 TS -23.8370 108.612 main 491 488 _________OP___ -1 -23.8000 108.600 TC -23.8739 108.624 1 3 205
1962022S12123 1962 8 SI WA NOT_NAMED 1962-01-30 21:00:00 TS -23.9873 108.545 main 498 497 _________PP___ -1 -23.9575 108.542 TC -24.0171 108.547 1 3 202
1962022S12123 1962 8 SI WA NOT_NAMED 1962-01-30 23:00:00 TS -24.0779 108.507 main 497 497 _________PO___ -1 -24.0557 108.514 TC -24.1000 108.500 1 3 205
1962022S12123 1962 8 SI WA NOT_NAMED 1962-01-31 00:00:00 TS -24.1169 108.491 main 497 496 _________OP___ -1 -24.1000 108.500 TC -24.1338 108.481 1 2 200
1962022S12123 1962 8 SI WA NOT_NAMED 1962-01-31 03:00:00 TS -24.2166 108.440 main 506 506 _________PP___ -1 -24.2150 108.450 TC -24.2182 108.431 1 2 207
1962022S12123 1962 8 SI WA NOT_NAMED 1962-01-31 06:00:00 TS -24.2934 108.392 main 506 506 _________OP___ -1 -24.3000 108.400 TC -24.2868 108.385 1 2 214
1962022S12123 1962 8 SI WA NOT_NAMED 1962-01-31 09:00:00 TS -24.3511 108.343 main 516 516 _________PP___ -1 -24.3500 108.350 TC -24.3521 108.336 1 1 219
1962022S12123 1962 8 SI WA NOT_NAMED 1962-01-31 11:00:00 TS -24.3901 108.308 main 516 516 _________PO___ -1 -24.3802 108.317 TC -24.4000 108.300 1 1 210
1962022S12123 1962 8 SI WA NOT_NAMED 1962-01-31 12:00:00 TS -24.4106 108.297 main 516 516 _________OP___ -1 -24.4000 108.300 TC -24.4212 108.294 1 2 204
1962022S12123 1962 8 SI WA NOT_NAMED 1962-01-31 15:00:00 TS -24.4859 108.271 main 516 516 _________PP___ -1 -24.4850 108.265 TC -24.4869 108.278 1 2 200
1962022S12123 1962 8 SI WA NOT_NAMED 1962-01-31 18:00:00 TS -24.5851 108.217 main 526 526 _________OP___ -1 -24.6000 108.200 TC -24.5702 108.234 1 3 214
1962022S12123 1962 8 SI WA NOT_NAMED 1962-01-31 21:00:00 TS -24.7088 108.110 main 536 536 _________PP___ -1 -24.7274 108.095 TC -24.6902 108.126 1 4 222
1962022S12123 1962 8 SI WA NOT_NAMED 1962-01-31 23:00:00 TS -24.8179 107.989 main 547 547 _________PO___ -1 -24.8359 107.978 TC -24.8000 108.000 1 5 225
1962022S12123 1962 8 SI WA NOT_NAMED 1962-02-01 00:00:00 TS -24.8890 107.910 main 557 557 _________OP___ -1 -24.9000 107.900 TC -24.8780 107.919 1 7 227
1962022S12123 1962 8 SI WA NOT_NAMED 1962-02-01 03:00:00 TS -25.1410 107.606 main 581 579 _________PP___ -1 -25.1274 107.602 TC -25.1546 107.609 1 8 230
1962022S12123 1962 8 SI WA NOT_NAMED 1962-02-01 06:00:00 TS -25.4294 107.205 main 615 613 _________OP___ -1 -25.4000 107.200 TC -25.4587 107.210 1 10 233
1962022S12123 1962 8 SI WA NOT_NAMED 1962-02-01 09:00:00 TS -25.7331 106.736 main 661 660 _________PP___ -1 -25.7225 106.730 TC -25.7437 106.742 1 11 237
1962022S12123 1962 8 SI WA NOT_NAMED 1962-02-01 11:00:00 TS -25.9101 106.390 main 689 689 _________PO___ -1 -25.9202 106.380 TC -25.9000 106.400 1 11 242
1962022S12123 1962 8 SI WA NOT_NAMED 1962-02-01 12:00:00 TS -25.9791 106.213 main 708 708 _________OP___ -1 -26.0000 106.200 TC -25.9634 106.223 1 10 253
1962022S12123 1962 8 SI WA NOT_NAMED 1962-02-01 15:00:00 TS -26.1128 105.663 main 757 757 _________PP___ -1 -26.1429 105.652 TC -26.0977 105.669 1 10 259
1962022S12123 1962 8 SI WA NOT_NAMED 1962-02-01 18:00:00 TS -26.1750 105.094 main 816 816 _________OP___ -1 -26.2000 105.100 TC -26.1666 105.091 1 10 266
1962022S12123 1962 8 SI WA NOT_NAMED 1962-02-01 21:00:00 NR -26.1936 104.499 main 876 876 __________P___ -1 TC -26.1936 104.499 1 11 268
1962022S12123 1962 8 SI WA NOT_NAMED 1962-02-01 23:00:00 NR -26.2000 104.100 main 916 __________O___ -1 TC -26.2000 104.100 1 11 269

IBTrACS Databaseについて

本データベースは、米国NOAAが公開する1842年以降の世界の熱帯低気圧のベストトラックデータアーカイブInternational Best Track Archive for Climate Stewardship (IBTrACS)を、ウェブで閲覧しやすい形式に変換したものです。

最終更新日:2021-12-01